Time;durP1;ratioP1;P1;durP2;ratioP2;P2;SDS_P1;SDS_P2;PMS_P1;PMS_P2;Temp;Humidity;BMP_temperature;BMP_pressure;BME280_temperature;BME280_humidity;BME280_pressure;Samples;Min_cycle;Max_cycle;Signal;HPM_P1;HPM_P2
2023/07/11 00:01:38;;;;;;;;;;;20.60;55.20;;;;;;6306163;22;19907;-75
2023/07/11 00:04:04;;;;;;;;;;;20.60;55.40;;;;;;6306081;22;19907;-75
2023/07/11 00:06:29;;;;;;;;;;;20.60;55.30;;;;;;6278648;22;19918;-73
2023/07/11 00:08:54;;;;;;;;;;;20.50;55.20;;;;;;6306208;22;19913;-75
2023/07/11 00:11:20;;;;;;;;;;;20.50;55.20;;;;;;6305911;22;20264;-76
2023/07/11 00:13:46;;;;;;;;;;;20.50;55.20;;;;;;6305856;22;20318;-76
2023/07/11 00:16:13;;;;;;;;;;;20.50;55.30;;;;;;6305863;22;19907;-75
2023/07/11 00:18:38;;;;;;;;;;;20.40;55.30;;;;;;6305553;22;19907;-75
2023/07/11 00:21:04;;;;;;;;;;;20.40;55.30;;;;;;6305933;22;19906;-75
2023/07/11 00:23:30;;;;;;;;;;;20.40;55.50;;;;;;6305865;22;19910;-76
2023/07/11 00:25:55;;;;;;;;;;;20.30;55.50;;;;;;6305940;22;19989;-76
2023/07/11 00:28:21;;;;;;;;;;;20.30;55.60;;;;;;6305813;22;19913;-75
2023/07/11 00:30:50;;;;;;;;;;;20.30;55.60;;;;;;6306321;22;19913;-77
2023/07/11 00:33:15;;;;;;;;;;;20.30;55.70;;;;;;6305663;22;19913;-77
2023/07/11 00:35:43;;;;;;;;;;;20.30;56.00;;;;;;6305653;22;19950;-76
2023/07/11 00:38:09;;;;;;;;;;;20.30;55.90;;;;;;6305602;22;20329;-76
2023/07/11 00:40:44;;;;;;;;;;;20.20;55.90;;;;;;6306427;22;19914;-76
2023/07/11 00:43:11;;;;;;;;;;;20.20;56.00;;;;;;6305766;22;19907;-76
2023/07/11 00:45:48;;;;;;;;;;;20.20;56.00;;;;;;6306117;22;20262;-76
2023/07/11 00:48:14;;;;;;;;;;;20.20;56.10;;;;;;6305532;22;20338;-75
2023/07/11 00:50:40;;;;;;;;;;;20.10;56.00;;;;;;6306096;22;19945;-76
2023/07/11 00:53:06;;;;;;;;;;;20.10;55.90;;;;;;6305964;22;19929;-76
2023/07/11 00:55:32;;;;;;;;;;;20.10;56.00;;;;;;6305820;22;20237;-76
2023/07/11 00:57:58;;;;;;;;;;;20.10;56.20;;;;;;6305447;22;19965;-76
2023/07/11 01:00:23;;;;;;;;;;;20.10;56.20;;;;;;6306062;22;19914;-77
2023/07/11 01:02:48;;;;;;;;;;;20.00;56.20;;;;;;6305482;22;19907;-76
2023/07/11 01:05:14;;;;;;;;;;;20.00;56.30;;;;;;6305880;22;19956;-76
2023/07/11 01:07:39;;;;;;;;;;;20.00;56.30;;;;;;6305789;22;20346;-75
2023/07/11 01:10:05;;;;;;;;;;;20.00;56.60;;;;;;6305772;22;19930;-76
2023/07/11 01:12:30;;;;;;;;;;;20.00;56.90;;;;;;6305420;22;19911;-75
2023/07/11 01:14:56;;;;;;;;;;;19.90;57.10;;;;;;6305790;22;20005;-76
2023/07/11 01:17:23;;;;;;;;;;;19.90;57.30;;;;;;6305538;22;19957;-76
2023/07/11 01:19:48;;;;;;;;;;;19.90;57.40;;;;;;6305624;22;19994;-76
2023/07/11 01:22:13;;;;;;;;;;;19.90;57.30;;;;;;6305635;22;20284;-76
2023/07/11 01:24:39;;;;;;;;;;;19.90;57.40;;;;;;6305506;22;19906;-76
2023/07/11 01:27:04;;;;;;;;;;;19.80;57.30;;;;;;6305370;22;20321;-76
2023/07/11 01:29:30;;;;;;;;;;;19.80;57.40;;;;;;6305630;22;19911;-75
2023/07/11 01:31:55;;;;;;;;;;;19.80;57.60;;;;;;6305539;22;19914;-75
2023/07/11 01:34:21;;;;;;;;;;;19.80;57.80;;;;;;6305570;22;19910;-75
2023/07/11 01:36:46;;;;;;;;;;;19.80;58.00;;;;;;6305819;22;20296;-76
2023/07/11 01:39:12;;;;;;;;;;;19.70;57.90;;;;;;6305393;22;20328;-76
2023/07/11 01:41:37;;;;;;;;;;;19.70;58.10;;;;;;6305337;22;20312;-75
2023/07/11 01:44:03;;;;;;;;;;;19.70;58.00;;;;;;6306785;22;19913;-75
2023/07/11 01:46:28;;;;;;;;;;;19.70;58.00;;;;;;6307329;22;19914;-75
2023/07/11 01:48:54;;;;;;;;;;;19.70;58.00;;;;;;6307429;22;19907;-75
2023/07/11 01:51:19;;;;;;;;;;;19.60;58.00;;;;;;6307289;22;19915;-73
2023/07/11 01:53:45;;;;;;;;;;;19.60;58.00;;;;;;6307617;22;19913;-76
2023/07/11 01:56:10;;;;;;;;;;;19.50;58.00;;;;;;6307275;22;19942;-75
2023/07/11 01:58:35;;;;;;;;;;;19.50;58.00;;;;;;6307054;22;19914;-75
2023/07/11 02:01:01;;;;;;;;;;;19.50;58.00;;;;;;6307428;22;19907;-75
2023/07/11 02:03:26;;;;;;;;;;;19.50;58.20;;;;;;6307274;22;19910;-75
2023/07/11 02:05:52;;;;;;;;;;;19.50;58.10;;;;;;6307982;22;19984;-75
2023/07/11 02:08:17;;;;;;;;;;;19.40;58.10;;;;;;6307488;22;20359;-76
2023/07/11 02:10:43;;;;;;;;;;;19.40;58.30;;;;;;6307564;22;20237;-76
2023/07/11 02:13:10;;;;;;;;;;;19.40;58.60;;;;;;6307270;22;19914;-76
2023/07/11 02:15:35;;;;;;;;;;;19.40;58.50;;;;;;6307579;22;19907;-76
2023/07/11 02:18:00;;;;;;;;;;;19.40;58.40;;;;;;6306953;22;20256;-75
2023/07/11 02:20:27;;;;;;;;;;;19.40;58.40;;;;;;6307443;22;19914;-75
2023/07/11 02:22:52;;;;;;;;;;;19.40;58.30;;;;;;6307344;22;19907;-75
2023/07/11 02:25:18;;;;;;;;;;;19.30;58.20;;;;;;6307411;22;19913;-75
2023/07/11 02:27:43;;;;;;;;;;;19.30;58.30;;;;;;6307008;22;19942;-75
2023/07/11 02:30:09;;;;;;;;;;;19.30;58.30;;;;;;6307457;22;20261;-76
2023/07/11 02:32:34;;;;;;;;;;;19.30;58.30;;;;;;6307269;22;19914;-75
2023/07/11 02:35:00;;;;;;;;;;;19.30;58.30;;;;;;6307119;22;19914;-75
2023/07/11 02:37:25;;;;;;;;;;;19.20;58.10;;;;;;6307220;22;19907;-75
2023/07/11 02:39:50;;;;;;;;;;;19.20;58.20;;;;;;6307055;22;19915;-75
2023/07/11 02:42:16;;;;;;;;;;;19.20;58.80;;;;;;6306923;22;19911;-76
2023/07/11 02:44:41;;;;;;;;;;;19.20;58.70;;;;;;6307049;22;20286;-75
2023/07/11 02:47:07;;;;;;;;;;;19.20;58.80;;;;;;6306704;22;19907;-75
2023/07/11 02:49:32;;;;;;;;;;;19.20;58.70;;;;;;6306999;22;19913;-75
2023/07/11 02:51:58;;;;;;;;;;;19.20;58.70;;;;;;6307011;22;20339;-72
2023/07/11 02:54:23;;;;;;;;;;;19.20;58.70;;;;;;6306730;22;19930;-75
2023/07/11 02:56:49;;;;;;;;;;;19.10;58.80;;;;;;6306637;22;19918;-75
2023/07/11 02:59:14;;;;;;;;;;;19.20;58.90;;;;;;6306607;22;19968;-75
2023/07/11 03:01:40;;;;;;;;;;;19.10;59.00;;;;;;6306705;22;19911;-75
2023/07/11 03:04:05;;;;;;;;;;;19.10;58.80;;;;;;6306753;22;19907;-75
2023/07/11 03:06:30;;;;;;;;;;;19.10;58.80;;;;;;6306561;22;19911;-74
2023/07/11 03:08:56;;;;;;;;;;;19.10;58.60;;;;;;6306894;22;19907;-75
2023/07/11 03:11:21;;;;;;;;;;;19.10;58.70;;;;;;6306683;22;19986;-75
2023/07/11 03:13:47;;;;;;;;;;;19.00;58.60;;;;;;6306482;22;19992;-75
2023/07/11 03:16:12;;;;;;;;;;;19.00;58.70;;;;;;6306548;22;20016;-74
2023/07/11 03:18:38;;;;;;;;;;;19.00;58.70;;;;;;6306354;22;19907;-75
2023/07/11 03:21:03;;;;;;;;;;;19.00;58.80;;;;;;6306523;22;19957;-74
2023/07/11 03:23:29;;;;;;;;;;;19.00;58.80;;;;;;6306401;22;19964;-74
2023/07/11 03:25:55;;;;;;;;;;;19.00;59.10;;;;;;6307002;22;19942;-75
2023/07/11 03:28:21;;;;;;;;;;;19.00;59.10;;;;;;6306492;22;19922;-75
2023/07/11 03:30:46;;;;;;;;;;;19.00;59.10;;;;;;6306893;22;20210;-75
2023/07/11 03:33:12;;;;;;;;;;;19.00;59.10;;;;;;6306398;22;19914;-74
2023/07/11 03:35:37;;;;;;;;;;;19.00;59.10;;;;;;6306836;22;19907;-74
2023/07/11 03:38:03;;;;;;;;;;;19.00;59.20;;;;;;6306613;22;19913;-74
2023/07/11 03:40:29;;;;;;;;;;;19.00;59.30;;;;;;6306982;22;20262;-74
2023/07/11 03:42:55;;;;;;;;;;;19.10;59.20;;;;;;6306244;22;19907;-74
2023/07/11 03:45:20;;;;;;;;;;;19.20;59.30;;;;;;6306823;22;20321;-76
2023/07/11 03:47:46;;;;;;;;;;;19.20;59.30;;;;;;6306010;22;19907;-76
2023/07/11 03:50:11;;;;;;;;;;;19.30;59.40;;;;;;6306584;22;19964;-75
2023/07/11 03:52:37;;;;;;;;;;;19.30;59.70;;;;;;6306454;22;19907;-74
2023/07/11 03:55:02;;;;;;;;;;;19.50;59.80;;;;;;6306437;22;19907;-75
2023/07/11 03:57:27;;;;;;;;;;;19.60;59.80;;;;;;6306013;22;20008;-74
2023/07/11 03:59:53;;;;;;;;;;;19.80;59.90;;;;;;6306150;22;19977;-74
2023/07/11 04:02:18;;;;;;;;;;;20.00;60.00;;;;;;6306161;22;19913;-74
2023/07/11 04:04:44;;;;;;;;;;;20.20;59.90;;;;;;6306158;22;19907;-74
2023/07/11 04:07:09;;;;;;;;;;;20.40;60.10;;;;;;6306162;22;19913;-74
2023/07/11 04:09:35;;;;;;;;;;;20.70;60.10;;;;;;6306203;22;19907;-74
2023/07/11 04:12:00;;;;;;;;;;;20.90;60.10;;;;;;6305479;22;19939;-74
2023/07/11 04:14:26;;;;;;;;;;;21.20;60.10;;;;;;6305855;22;19907;-74
2023/07/11 04:16:51;;;;;;;;;;;21.50;60.00;;;;;;6305964;22;19991;-74
2023/07/11 04:19:17;;;;;;;;;;;21.80;59.80;;;;;;6305887;22;19918;-74
2023/07/11 04:21:42;;;;;;;;;;;22.10;59.50;;;;;;6306144;22;19979;-74
2023/07/11 04:24:08;;;;;;;;;;;22.40;59.40;;;;;;6305686;22;20321;-75
2023/07/11 04:26:33;;;;;;;;;;;22.70;59.10;;;;;;6305980;22;19964;-74
2023/07/11 04:28:59;;;;;;;;;;;23.00;58.80;;;;;;6305772;22;19957;-74
2023/07/11 04:31:25;;;;;;;;;;;23.30;58.20;;;;;;6305698;22;19915;-74
2023/07/11 04:33:51;;;;;;;;;;;23.70;58.00;;;;;;6305750;22;19915;-74
2023/07/11 04:36:16;;;;;;;;;;;24.00;57.60;;;;;;6306000;22;20249;-74
2023/07/11 04:38:42;;;;;;;;;;;24.30;57.10;;;;;;6305567;22;20313;-74
2023/07/11 04:41:08;;;;;;;;;;;24.70;56.40;;;;;;6305694;22;20383;-75
2023/07/11 04:43:34;;;;;;;;;;;25.00;55.50;;;;;;6305625;22;19961;-75
2023/07/11 04:45:59;;;;;;;;;;;25.30;55.20;;;;;;6305596;22;19910;-75
2023/07/11 04:48:25;;;;;;;;;;;25.70;53.80;;;;;;6305598;22;19903;-74
2023/07/11 04:50:57;;;;;;;;;;;26.00;53.60;;;;;;6306582;22;20004;-75
2023/07/11 04:53:23;;;;;;;;;;;26.40;51.90;;;;;;6305068;22;19914;-75
2023/07/11 04:55:55;;;;;;;;;;;26.70;51.30;;;;;;6305986;22;20314;-75
2023/07/11 04:58:21;;;;;;;;;;;26.90;50.90;;;;;;6305818;22;19922;-75
2023/07/11 05:00:46;;;;;;;;;;;27.30;49.20;;;;;;6305410;22;20245;-75
2023/07/11 05:03:11;;;;;;;;;;;27.60;49.10;;;;;;6305674;22;20332;-75
2023/07/11 05:05:37;;;;;;;;;;;28.00;47.90;;;;;;6306055;22;19930;-75
2023/07/11 05:08:02;;;;;;;;;;;28.30;46.90;;;;;;6305136;22;19973;-75
2023/07/11 05:10:28;;;;;;;;;;;28.60;47.20;;;;;;6305962;22;19907;-74
2023/07/11 05:12:53;;;;;;;;;;;29.00;46.60;;;;;;6278223;22;19930;-74
2023/07/11 05:15:19;;;;;;;;;;;29.40;45.90;;;;;;6278364;22;19906;-75
2023/07/11 05:17:44;;;;;;;;;;;29.70;45.10;;;;;;6304975;22;19911;-75
2023/07/11 05:20:10;;;;;;;;;;;30.00;44.40;;;;;;6305514;22;19911;-75
2023/07/11 05:22:35;;;;;;;;;;;30.20;42.20;;;;;;6305305;22;19907;-74
2023/07/11 05:25:01;;;;;;;;;;;30.40;41.80;;;;;;6305087;22;20221;-74
2023/07/11 05:27:27;;;;;;;;;;;30.50;41.40;;;;;;6278308;22;20297;-74
2023/07/11 05:29:52;;;;;;;;;;;30.70;40.80;;;;;;6305537;22;19907;-74
2023/07/11 05:32:18;;;;;;;;;;;31.00;40.40;;;;;;6305229;22;19911;-75
2023/07/11 05:34:43;;;;;;;;;;;31.20;39.00;;;;;;6305629;22;19969;-74
2023/07/11 05:37:08;;;;;;;;;;;31.30;39.40;;;;;;6278005;22;19929;-75
2023/07/11 05:39:34;;;;;;;;;;;31.60;38.90;;;;;;6305613;22;19964;-74
2023/07/11 05:42:00;;;;;;;;;;;31.90;38.20;;;;;;6305302;22;19929;-74
2023/07/11 05:44:26;;;;;;;;;;;32.20;38.10;;;;;;6305710;22;19914;-74
2023/07/11 05:46:51;;;;;;;;;;;32.50;38.00;;;;;;6305391;22;19985;-75
2023/07/11 05:49:17;;;;;;;;;;;32.80;37.40;;;;;;6305288;22;19907;-74
2023/07/11 05:51:43;;;;;;;;;;;33.30;37.00;;;;;;6305296;22;19930;-74
2023/07/11 05:54:08;;;;;;;;;;;33.60;36.70;;;;;;6304992;22;19906;-74
2023/07/11 05:56:34;;;;;;;;;;;33.90;36.10;;;;;;6304937;22;19915;-75
2023/07/11 05:58:59;;;;;;;;;;;34.20;35.60;;;;;;6304978;22;20310;-75
2023/07/11 06:01:26;;;;;;;;;;;34.50;35.30;;;;;;6305252;22;19915;-75
2023/07/11 06:04:02;;;;;;;;;;;34.80;35.10;;;;;;6304361;22;19931;-75
2023/07/11 06:06:27;;;;;;;;;;;35.20;34.10;;;;;;6304910;22;20006;-74
2023/07/11 06:08:52;;;;;;;;;;;35.50;34.30;;;;;;6277577;22;19930;-75
2023/07/11 06:11:18;;;;;;;;;;;35.90;33.40;;;;;;6305178;22;19914;-75
2023/07/11 06:13:43;;;;;;;;;;;36.20;33.30;;;;;;6304034;22;19907;-75
2023/07/11 06:16:13;;;;;;;;;;;36.50;33.20;;;;;;6304335;22;19907;-75
2023/07/11 06:18:38;;;;;;;;;;;36.90;32.20;;;;;;6304708;22;19914;-74
2023/07/11 06:21:05;;;;;;;;;;;37.20;31.90;;;;;;6304899;22;19906;-75
2023/07/11 06:23:30;;;;;;;;;;;37.40;31.20;;;;;;6304155;22;20308;-75
2023/07/11 06:25:55;;;;;;;;;;;37.70;30.60;;;;;;6304361;22;19907;-75
2023/07/11 06:28:21;;;;;;;;;;;37.90;30.60;;;;;;6305204;22;19911;-75
2023/07/11 06:30:47;;;;;;;;;;;38.20;30.40;;;;;;6306758;22;19957;-75
2023/07/11 06:33:12;;;;;;;;;;;38.60;30.20;;;;;;6305338;22;19953;-75
2023/07/11 06:35:41;;;;;;;;;;;38.90;29.10;;;;;;6307578;22;19907;-75
2023/07/11 06:38:07;;;;;;;;;;;39.00;29.00;;;;;;6306679;22;19950;-76
2023/07/11 06:40:32;;;;;;;;;;;39.20;28.70;;;;;;6306669;22;19906;-75
2023/07/11 06:42:58;;;;;;;;;;;39.40;27.60;;;;;;6305736;22;20287;-76
2023/07/11 06:45:24;;;;;;;;;;;39.40;27.70;;;;;;6307393;22;19907;-76
2023/07/11 06:47:49;;;;;;;;;;;39.40;27.30;;;;;;6305283;22;19986;-76
2023/07/11 06:50:15;;;;;;;;;;;39.50;27.70;;;;;;6307166;22;19986;-75
2023/07/11 06:52:40;;;;;;;;;;;39.80;27.70;;;;;;6306055;22;19911;-75
2023/07/11 06:55:06;;;;;;;;;;;40.20;27.40;;;;;;6307097;22;19989;-75
2023/07/11 06:57:32;;;;;;;;;;;40.60;27.00;;;;;;6278849;22;19954;-75
2023/07/11 06:59:57;;;;;;;;;;;40.90;26.60;;;;;;6306683;22;19918;-75
2023/07/11 07:02:23;;;;;;;;;;;41.30;26.40;;;;;;6305521;22;19907;-75
2023/07/11 07:04:48;;;;;;;;;;;41.50;25.90;;;;;;6306190;22;20233;-75
2023/07/11 07:07:13;;;;;;;;;;;41.80;25.90;;;;;;6302558;22;20321;-75
2023/07/11 07:09:39;;;;;;;;;;;42.00;25.50;;;;;;6304826;22;19913;-75
2023/07/11 07:12:04;;;;;;;;;;;42.20;25.00;;;;;;6279032;22;19978;-74
2023/07/11 07:14:30;;;;;;;;;;;42.20;24.90;;;;;;6306038;22;19918;-75
2023/07/11 07:16:55;;;;;;;;;;;42.40;24.80;;;;;;6278609;22;20312;-75
2023/07/11 07:19:21;;;;;;;;;;;42.60;24.60;;;;;;6306479;22;19960;-75
2023/07/11 07:21:46;;;;;;;;;;;42.70;24.60;;;;;;6306143;22;19907;-75
2023/07/11 07:24:12;;;;;;;;;;;42.80;24.70;;;;;;6305267;22;20344;-75
2023/07/11 07:26:37;;;;;;;;;;;43.10;24.60;;;;;;6306304;22;19981;-76
2023/07/11 07:29:03;;;;;;;;;;;43.30;24.30;;;;;;6306193;22;19907;-75
2023/07/11 07:31:29;;;;;;;;;;;43.50;24.40;;;;;;6306466;22;19911;-75
2023/07/11 07:33:55;;;;;;;;;;;43.70;24.10;;;;;;6306256;22;19982;-75
2023/07/11 07:36:20;;;;;;;;;;;43.80;24.10;;;;;;6306155;22;19946;-75
2023/07/11 07:38:47;;;;;;;;;;;44.10;23.90;;;;;;6306010;22;20222;-73
2023/07/11 07:41:13;;;;;;;;;;;44.30;23.90;;;;;;6305238;22;19918;-74
2023/07/11 07:43:43;;;;;;;;;;;44.50;23.90;;;;;;6306236;22;20312;-74
2023/07/11 07:46:13;;;;;;;;;;;44.90;23.80;;;;;;6305522;22;20324;-74
2023/07/11 07:48:38;;;;;;;;;;;45.20;22.50;;;;;;6304944;22;19903;-72
2023/07/11 07:51:05;;;;;;;;;;;45.40;21.70;;;;;;6305997;22;20241;-74
2023/07/11 07:53:30;;;;;;;;;;;45.70;20.90;;;;;;6277819;22;19910;-73
2023/07/11 07:56:01;;;;;;;;;;;45.70;20.00;;;;;;6305944;22;19914;-73
2023/07/11 07:58:26;;;;;;;;;;;45.80;19.80;;;;;;6306080;22;19907;-73
2023/07/11 08:00:52;;;;;;;;;;;45.70;19.20;;;;;;6305427;22;19907;-73
2023/07/11 08:03:18;;;;;;;;;;;45.70;19.30;;;;;;6305737;22;19911;-73
2023/07/11 08:05:43;;;;;;;;;;;45.60;19.20;;;;;;6306090;22;19907;-75
2023/07/11 08:08:08;;;;;;;;;;;45.70;19.30;;;;;;6305456;22;19907;-74
2023/07/11 08:10:34;;;;;;;;;;;45.80;19.20;;;;;;6305083;22;19911;-73
2023/07/11 08:12:59;;;;;;;;;;;45.70;19.00;;;;;;6305444;22;19985;-73
2023/07/11 08:15:25;;;;;;;;;;;45.70;18.90;;;;;;6306675;22;19935;-74
2023/07/11 08:17:50;;;;;;;;;;;45.80;19.40;;;;;;6305964;22;19949;-73
2023/07/11 08:20:16;;;;;;;;;;;45.90;19.10;;;;;;6305622;22;20210;-73
2023/07/11 08:22:42;;;;;;;;;;;46.00;19.00;;;;;;6305132;22;19922;-73
2023/07/11 08:25:08;;;;;;;;;;;45.70;18.80;;;;;;6304911;22;20324;-74
2023/07/11 08:27:33;;;;;;;;;;;45.70;19.00;;;;;;6305809;22;19918;-73
2023/07/11 08:29:59;;;;;;;;;;;45.70;19.10;;;;;;6306049;22;20309;-73
2023/07/11 08:32:24;;;;;;;;;;;45.80;19.20;;;;;;6305299;22;19911;-74
2023/07/11 08:34:50;;;;;;;;;;;45.90;18.90;;;;;;6305803;22;19911;-74
2023/07/11 08:37:15;;;;;;;;;;;45.90;19.10;;;;;;6304414;22;19950;-74
2023/07/11 08:39:41;;;;;;;;;;;46.00;19.00;;;;;;6305129;22;19911;-73
2023/07/11 08:42:14;;;;;;;;;;;46.10;19.00;;;;;;6305669;22;20244;-73
2023/07/11 08:44:49;;;;;;;;;;;46.20;18.80;;;;;;6305558;22;19974;-73
2023/07/11 08:47:28;;;;;;;;;;;46.30;18.80;;;;;;6305318;22;19918;-73
2023/07/11 08:50:05;;;;;;;;;;;46.30;18.80;;;;;;6306006;22;19934;-73
2023/07/11 08:52:31;;;;;;;;;;;46.40;18.20;;;;;;6305062;22;20392;-73
2023/07/11 08:55:04;;;;;;;;;;;46.30;18.10;;;;;;6305935;22;19926;-73
2023/07/11 08:57:33;;;;;;;;;;;46.30;18.50;;;;;;6305794;22;19993;-73
2023/07/11 09:00:07;;;;;;;;;;;46.40;18.60;;;;;;6278080;22;19968;-73
2023/07/11 09:02:45;;;;;;;;;;;46.50;18.10;;;;;;6305708;22;19914;-73
2023/07/11 09:05:21;;;;;;;;;;;46.40;18.30;;;;;;6305215;22;19915;-73
2023/07/11 09:07:46;;;;;;;;;;;46.50;18.40;;;;;;6305918;22;19907;-73
2023/07/11 09:10:21;;;;;;;;;;;46.60;18.40;;;;;;6305314;22;20326;-73
2023/07/11 09:12:52;;;;;;;;;;;46.70;18.10;;;;;;6305445;22;19960;-73
2023/07/11 09:15:20;;;;;;;;;;;46.50;17.90;;;;;;6305151;22;19926;-73
2023/07/11 09:17:47;;;;;;;;;;;46.40;18.20;;;;;;6305454;22;19915;-74
2023/07/11 09:20:22;;;;;;;;;;;46.40;17.70;;;;;;6304702;22;19917;-73
2023/07/11 09:23:02;;;;;;;;;;;46.30;17.70;;;;;;6305389;22;19914;-73
2023/07/11 09:25:46;;;;;;;;;;;46.30;18.10;;;;;;6306083;22;19907;-73
2023/07/11 09:28:23;;;;;;;;;;;46.30;18.10;;;;;;6304865;22;19918;-74
2023/07/11 09:30:50;;;;;;;;;;;46.40;18.00;;;;;;6305841;22;20232;-73
2023/07/11 09:33:18;;;;;;;;;;;46.50;18.20;;;;;;6304774;22;19907;-73
2023/07/11 09:35:44;;;;;;;;;;;46.70;18.70;;;;;;6305869;22;19914;-73
2023/07/11 09:38:24;;;;;;;;;;;47.00;18.40;;;;;;6304610;22;19956;-71
2023/07/11 09:41:08;;;;;;;;;;;47.20;17.80;;;;;;6305595;22;19919;-74
2023/07/11 09:43:33;;;;;;;;;;;47.40;17.50;;;;;;6305313;22;20295;-74
2023/07/11 09:45:59;;;;;;;;;;;47.20;16.60;;;;;;6304313;22;19911;-73
2023/07/11 09:48:30;;;;;;;;;;;46.80;16.80;;;;;;6304779;22;19909;-74
2023/07/11 09:51:24;;;;;;;;;;;46.60;16.90;;;;;;6305574;22;20329;-74
2023/07/11 09:53:50;;;;;;;;;;;46.50;17.10;;;;;;6305474;22;19999;-74
2023/07/11 09:56:17;;;;;;;;;;;46.40;17.40;;;;;;6305086;22;19949;-74
2023/07/11 09:58:50;;;;;;;;;;;46.60;17.40;;;;;;6304647;22;19910;-74
2023/07/11 10:01:25;;;;;;;;;;;46.70;17.00;;;;;;6303948;22;19907;-74
2023/07/11 10:03:55;;;;;;;;;;;46.60;17.20;;;;;;6304478;22;19992;-74
2023/07/11 10:06:37;;;;;;;;;;;46.80;17.30;;;;;;6307253;22;20479;-74
2023/07/11 10:09:25;;;;;;;;;;;46.90;17.10;;;;;;6306330;22;19914;-75
2023/07/11 10:11:52;;;;;;;;;;;47.10;16.90;;;;;;6286872;22;19911;-74
2023/07/11 10:14:18;;;;;;;;;;;47.40;16.80;;;;;;6306516;22;20335;-74
2023/07/11 10:16:44;;;;;;;;;;;47.70;16.60;;;;;;6307468;22;19907;-74
2023/07/11 10:19:14;;;;;;;;;;;47.70;16.40;;;;;;6306872;22;19918;-74
2023/07/11 10:21:42;;;;;;;;;;;47.70;16.60;;;;;;6306691;22;19985;-74
2023/07/11 10:24:14;;;;;;;;;;;47.70;16.70;;;;;;6306943;22;20236;-74
2023/07/11 10:26:39;;;;;;;;;;;47.60;16.40;;;;;;6306819;22;19969;-74
2023/07/11 10:29:10;;;;;;;;;;;47.10;16.40;;;;;;6306898;22;19910;-74
2023/07/11 10:31:38;;;;;;;;;;;46.80;16.60;;;;;;6307008;22;20720;-75
2023/07/11 10:34:13;;;;;;;;;;;46.60;16.90;;;;;;6306179;22;19929;-74
2023/07/11 10:36:46;;;;;;;;;;;46.40;16.60;;;;;;6307114;22;19960;-73
2023/07/11 10:39:19;;;;;;;;;;;45.80;16.80;;;;;;6307082;22;19919;-74
2023/07/11 10:41:46;;;;;;;;;;;45.50;16.90;;;;;;6307097;22;19907;-74
2023/07/11 10:44:14;;;;;;;;;;;45.20;17.10;;;;;;6306656;22;19918;-74
2023/07/11 10:46:45;;;;;;;;;;;45.10;17.60;;;;;;6305746;22;19981;-74
2023/07/11 10:49:15;;;;;;;;;;;45.00;17.70;;;;;;6306247;22;20317;-74
2023/07/11 10:51:45;;;;;;;;;;;44.90;17.70;;;;;;6306993;22;19910;-74
2023/07/11 10:54:30;;;;;;;;;;;44.50;17.50;;;;;;6306713;22;20003;-76
2023/07/11 10:57:00;;;;;;;;;;;44.00;18.00;;;;;;6279743;22;19914;-74
2023/07/11 10:59:27;;;;;;;;;;;43.80;18.50;;;;;;6306746;22;20345;-73
2023/07/11 11:01:59;;;;;;;;;;;43.60;18.50;;;;;;6306108;22;20245;-74
2023/07/11 11:04:43;;;;;;;;;;;43.30;18.70;;;;;;6279663;22;19989;-73
2023/07/11 11:07:16;;;;;;;;;;;42.90;19.00;;;;;;6305880;22;20317;-74
2023/07/11 11:09:47;;;;;;;;;;;42.50;19.40;;;;;;6307003;22;20209;-74
2023/07/11 11:12:13;;;;;;;;;;;42.30;19.60;;;;;;6306380;22;20281;-74
2023/07/11 11:14:55;;;;;;;;;;;42.20;20.00;;;;;;6306059;22;19957;-74
2023/07/11 11:17:24;;;;;;;;;;;42.50;19.90;;;;;;6306795;22;20129;-74
2023/07/11 11:19:55;;;;;;;;;;;42.70;19.40;;;;;;6306226;22;20210;-74
2023/07/11 11:22:25;;;;;;;;;;;42.70;19.20;;;;;;6306949;22;20062;-75
2023/07/11 11:25:00;;;;;;;;;;;42.70;19.20;;;;;;6306680;22;19964;-73
2023/07/11 11:27:35;;;;;;;;;;;42.50;18.90;;;;;;6306327;22;19911;-73
2023/07/11 11:30:06;;;;;;;;;;;42.20;19.00;;;;;;6307231;22;20327;-74
2023/07/11 11:33:04;;;;;;;;;;;42.10;19.50;;;;;;6306480;22;19918;-75
2023/07/11 11:35:35;;;;;;;;;;;42.20;19.70;;;;;;6222969;22;19913;-73
2023/07/11 11:38:13;;;;;;;;;;;42.50;19.90;;;;;;6306073;22;19907;-74
2023/07/11 11:40:40;;;;;;;;;;;42.70;19.90;;;;;;6306162;22;20313;-75
2023/07/11 11:43:09;;;;;;;;;;;43.00;19.80;;;;;;6306105;22;19907;-74
2023/07/11 11:45:35;;;;;;;;;;;43.20;19.80;;;;;;6306482;22;19907;-68
2023/07/11 11:48:02;;;;;;;;;;;43.30;19.70;;;;;;6306851;22;19907;-67
2023/07/11 11:50:29;;;;;;;;;;;43.30;19.50;;;;;;6306449;22;19911;-69
2023/07/11 11:52:56;;;;;;;;;;;43.30;19.30;;;;;;6305749;22;19907;-69
2023/07/11 11:55:33;;;;;;;;;;;43.20;19.10;;;;;;6306381;22;20041;-68
2023/07/11 11:57:59;;;;;;;;;;;43.20;19.30;;;;;;6305785;22;19942;-68
2023/07/11 12:00:38;;;;;;;;;;;43.20;18.80;;;;;;6305963;22;20320;-68
2023/07/11 12:03:04;;;;;;;;;;;43.20;18.90;;;;;;6305476;22;19911;-68
2023/07/11 12:05:30;;;;;;;;;;;43.40;18.90;;;;;;6307097;22;19941;-68
2023/07/11 12:08:16;;;;;;;;;;;43.50;18.90;;;;;;6306154;22;19911;-68
2023/07/11 12:11:00;;;;;;;;;;;43.70;19.00;;;;;;6305975;22;19907;-68
2023/07/11 12:13:30;;;;;;;;;;;43.90;18.30;;;;;;6306159;22;19918;-70
2023/07/11 12:15:56;;;;;;;;;;;43.80;18.20;;;;;;6305226;22;19906;-69
2023/07/11 12:18:26;;;;;;;;;;;43.70;18.60;;;;;;6303945;22;19919;-67
2023/07/11 12:21:06;;;;;;;;;;;43.80;18.80;;;;;;6305283;22;19975;-68
2023/07/11 12:23:32;;;;;;;;;;;44.10;18.90;;;;;;6305813;22;19919;-68
2023/07/11 12:26:07;;;;;;;;;;;44.20;18.60;;;;;;6305700;22;19918;-68
2023/07/11 12:28:33;;;;;;;;;;;44.20;18.60;;;;;;6278521;22;19947;-68
2023/07/11 12:31:03;;;;;;;;;;;44.10;18.30;;;;;;6305836;22;19919;-68
2023/07/11 12:33:36;;;;;;;;;;;43.70;18.30;;;;;;6305850;22;19903;-68
2023/07/11 12:36:20;;;;;;;;;;;43.30;18.60;;;;;;6305919;22;19915;-68
2023/07/11 12:39:04;;;;;;;;;;;43.00;18.90;;;;;;6305665;22;19910;-67
2023/07/11 12:41:42;;;;;;;;;;;42.70;19.10;;;;;;6305880;22;19911;-68
2023/07/11 12:44:12;;;;;;;;;;;42.60;19.40;;;;;;6305286;22;19903;-68
2023/07/11 12:46:38;;;;;;;;;;;42.50;19.40;;;;;;6305415;22;19918;-69
2023/07/11 12:49:10;;;;;;;;;;;42.40;19.90;;;;;;6305603;22;19903;-67
2023/07/11 12:51:39;;;;;;;;;;;42.60;19.90;;;;;;6305983;22;19915;-67
2023/07/11 12:54:07;;;;;;;;;;;42.70;19.70;;;;;;6305764;22;19910;-68
2023/07/11 12:56:32;;;;;;;;;;;42.70;19.80;;;;;;6304994;22;19950;-68
2023/07/11 12:58:58;;;;;;;;;;;42.70;19.80;;;;;;6304952;22;19934;-66
2023/07/11 13:01:24;;;;;;;;;;;42.90;20.00;;;;;;6304912;22;19907;-67
2023/07/11 13:03:50;;;;;;;;;;;43.10;19.80;;;;;;6304684;22;19910;-68
2023/07/11 13:06:19;;;;;;;;;;;43.20;18.90;;;;;;6304470;22;19907;-67
2023/07/11 13:08:45;;;;;;;;;;;43.00;19.00;;;;;;6305236;22;20029;-67
2023/07/11 13:11:16;;;;;;;;;;;42.90;19.30;;;;;;6305494;22;19946;-66
2023/07/11 13:13:41;;;;;;;;;;;42.90;19.50;;;;;;6305960;22;20348;-67
2023/07/11 13:16:10;;;;;;;;;;;43.10;19.70;;;;;;6305282;22;19914;-67
2023/07/11 13:18:38;;;;;;;;;;;43.20;19.30;;;;;;6305509;22;20390;-67
2023/07/11 13:21:04;;;;;;;;;;;43.20;19.30;;;;;;6305434;22;19938;-67
2023/07/11 13:23:31;;;;;;;;;;;43.30;19.30;;;;;;6305424;22;19910;-68
2023/07/11 13:25:57;;;;;;;;;;;43.20;19.30;;;;;;6305443;22;19914;-67
2023/07/11 13:28:24;;;;;;;;;;;43.20;18.60;;;;;;6305703;22;20382;-67
2023/07/11 13:31:00;;;;;;;;;;;42.90;18.60;;;;;;6305699;22;19982;-68
2023/07/11 13:33:43;;;;;;;;;;;42.70;19.00;;;;;;6306077;22;20232;-67
2023/07/11 13:36:19;;;;;;;;;;;42.70;19.20;;;;;;6305356;22;20336;-67
2023/07/11 13:38:46;;;;;;;;;;;42.60;19.00;;;;;;6304759;22;19969;-67
2023/07/11 13:41:14;;;;;;;;;;;42.50;19.50;;;;;;6306364;22;19910;-68
2023/07/11 13:43:41;;;;;;;;;;;42.60;19.50;;;;;;6305621;22;19910;-67
2023/07/11 13:46:06;;;;;;;;;;;42.60;19.30;;;;;;6307225;22;19993;-67
2023/07/11 13:48:33;;;;;;;;;;;42.50;19.50;;;;;;6307444;22;19903;-68
2023/07/11 13:51:17;;;;;;;;;;;42.60;19.30;;;;;;6307533;22;20417;-68
2023/07/11 13:53:47;;;;;;;;;;;42.40;19.20;;;;;;6307626;22;19903;-68
2023/07/11 13:56:13;;;;;;;;;;;42.30;19.50;;;;;;6307770;22;19918;-67
2023/07/11 13:58:38;;;;;;;;;;;42.20;19.40;;;;;;6306968;22;19918;-67
2023/07/11 14:01:09;;;;;;;;;;;42.00;19.70;;;;;;6306232;22;19985;-67
2023/07/11 14:03:35;;;;;;;;;;;41.80;19.80;;;;;;6306720;22;20240;-68
2023/07/11 14:06:01;;;;;;;;;;;41.60;20.00;;;;;;6280186;22;19985;-67
2023/07/11 14:08:26;;;;;;;;;;;41.40;20.20;;;;;;6307167;22;20279;-68
2023/07/11 14:10:52;;;;;;;;;;;41.30;20.10;;;;;;6307896;22;19960;-68
2023/07/11 14:13:20;;;;;;;;;;;41.30;20.40;;;;;;6306800;22;19960;-68
2023/07/11 14:15:45;;;;;;;;;;;41.30;20.30;;;;;;6308170;22;19917;-67
2023/07/11 14:18:12;;;;;;;;;;;41.40;20.50;;;;;;6306278;22;19993;-68
2023/07/11 14:20:37;;;;;;;;;;;41.40;20.30;;;;;;6307380;22;19913;-67